sensor_id;sensor_type;location;lat;lon;timestamp;pressure;altitude;pressure_sealevel;temperature;humidity
6938;BME280;40040;42.706;23.372;2023-04-04T00:01:56;146264.31;;;8.47;100.00
6938;BME280;40040;42.706;23.372;2023-04-04T00:04:25;146293.94;;;8.59;100.00
6938;BME280;40040;42.706;23.372;2023-04-04T00:06:51;146316.06;;;8.68;100.00
6938;BME280;40040;42.706;23.372;2023-04-04T00:09:18;146291.44;;;8.58;100.00
6938;BME280;40040;42.706;23.372;2023-04-04T00:11:47;146284.06;;;8.55;100.00
6938;BME280;40040;42.706;23.372;2023-04-04T00:14:14;146298.81;;;8.61;100.00
6938;BME280;40040;42.706;23.372;2023-04-04T00:16:41;146296.38;;;8.60;100.00
6938;BME280;40040;42.706;23.372;2023-04-04T00:19:08;146284.06;;;8.55;100.00
6938;BME280;40040;42.706;23.372;2023-04-04T00:21:38;146297.63;;;8.61;100.00
6938;BME280;40040;42.706;23.372;2023-04-04T00:24:05;146305.00;;;8.64;100.00
6938;BME280;40040;42.706;23.372;2023-04-04T00:26:32;146307.44;;;8.65;100.00
6938;BME280;40040;42.706;23.372;2023-04-04T00:29:00;146321.00;;;8.70;100.00
6938;BME280;40040;42.706;23.372;2023-04-04T00:31:27;146313.63;;;8.67;100.00
6938;BME280;40040;42.706;23.372;2023-04-04T00:33:54;146323.50;;;8.71;100.00
6938;BME280;40040;42.706;23.372;2023-04-04T00:36:21;146295.13;;;8.60;100.00
6938;BME280;40040;42.706;23.372;2023-04-04T00:38:47;146335.81;;;8.76;100.00
6938;BME280;40040;42.706;23.372;2023-04-04T00:41:15;146308.69;;;8.65;100.00
6938;BME280;40040;42.706;23.372;2023-04-04T00:43:42;146345.63;;;8.80;100.00
6938;BME280;40040;42.706;23.372;2023-04-04T00:46:10;146303.75;;;8.63;100.00
6938;BME280;40040;42.706;23.372;2023-04-04T00:48:40;146323.50;;;8.71;100.00
6938;BME280;40040;42.706;23.372;2023-04-04T00:51:07;146333.31;;;8.75;100.00
6938;BME280;40040;42.706;23.372;2023-04-04T00:53:34;146321.00;;;8.70;100.00
6938;BME280;40040;42.706;23.372;2023-04-04T00:56:01;146316.06;;;8.68;100.00
6938;BME280;40040;42.706;23.372;2023-04-04T00:58:29;146308.69;;;8.65;100.00
6938;BME280;40040;42.706;23.372;2023-04-04T01:00:56;146308.69;;;8.65;100.00
6938;BME280;40040;42.706;23.372;2023-04-04T01:03:24;146233.56;;;8.35;100.00
6938;BME280;40040;42.706;23.372;2023-04-04T01:05:53;146280.38;;;8.54;100.00
6938;BME280;40040;42.706;23.372;2023-04-04T01:08:22;146287.75;;;8.57;100.00
6938;BME280;40040;42.706;23.372;2023-04-04T01:10:50;146308.69;;;8.65;100.00
6938;BME280;40040;42.706;23.372;2023-04-04T01:13:17;146321.00;;;8.70;100.00
6938;BME280;40040;42.706;23.372;2023-04-04T01:15:44;146276.69;;;8.52;100.00
6938;BME280;40040;42.706;23.372;2023-04-04T01:18:14;146289.00;;;8.57;100.00
6938;BME280;40040;42.706;23.372;2023-04-04T01:20:49;146274.19;;;8.51;100.00
6938;BME280;40040;42.706;23.372;2023-04-04T01:23:20;146252.03;;;8.42;100.00
6938;BME280;40040;42.706;23.372;2023-04-04T01:25:59;146276.69;;;8.52;100.00
6938;BME280;40040;42.706;23.372;2023-04-04T01:28:27;146289.00;;;8.57;100.00
6938;BME280;40040;42.706;23.372;2023-04-04T01:30:54;146276.69;;;8.52;100.00
6938;BME280;40040;42.706;23.372;2023-04-04T01:33:26;146254.50;;;8.43;100.00
6938;BME280;40040;42.706;23.372;2023-04-04T01:36:02;146254.50;;;8.43;100.00
6938;BME280;40040;42.706;23.372;2023-04-04T01:38:39;146249.56;;;8.41;100.00
6938;BME280;40040;42.706;23.372;2023-04-04T01:41:09;146250.81;;;8.42;100.00
6938;BME280;40040;42.706;23.372;2023-04-04T01:43:37;146207.72;;;8.24;100.00
6938;BME280;40040;42.706;23.372;2023-04-04T01:46:04;146217.53;;;8.28;100.00
6938;BME280;40040;42.706;23.372;2023-04-04T01:48:31;146224.97;;;8.31;100.00
6938;BME280;40040;42.706;23.372;2023-04-04T01:50:59;146244.66;;;8.39;100.00
6938;BME280;40040;42.706;23.372;2023-04-04T01:53:26;146247.13;;;8.40;100.00
6938;BME280;40040;42.706;23.372;2023-04-04T01:55:53;146239.72;;;8.37;100.00
6938;BME280;40040;42.706;23.372;2023-04-04T01:58:21;146234.78;;;8.35;100.00
6938;BME280;40040;42.706;23.372;2023-04-04T02:00:48;146237.25;;;8.36;100.00
6938;BME280;40040;42.706;23.372;2023-04-04T02:03:15;146221.25;;;8.30;100.00
6938;BME280;40040;42.706;23.372;2023-04-04T02:05:42;146205.19;;;8.23;100.00
6938;BME280;40040;42.706;23.372;2023-04-04T02:08:09;146215.09;;;8.27;100.00
6938;BME280;40040;42.706;23.372;2023-04-04T02:10:36;146211.41;;;8.26;100.00
6938;BME280;40040;42.706;23.372;2023-04-04T02:13:03;146223.72;;;8.31;100.00
6938;BME280;40040;42.706;23.372;2023-04-04T02:15:32;146216.34;;;8.28;100.00
6938;BME280;40040;42.706;23.372;2023-04-04T02:17:59;146195.34;;;8.19;100.00
6938;BME280;40040;42.706;23.372;2023-04-04T02:20:26;146189.19;;;8.17;100.00
6938;BME280;40040;42.706;23.372;2023-04-04T02:22:53;146189.19;;;8.17;100.00
6938;BME280;40040;42.706;23.372;2023-04-04T02:25:22;146169.50;;;8.09;100.00
6938;BME280;40040;42.706;23.372;2023-04-04T02:27:49;146160.88;;;8.05;100.00
6938;BME280;40040;42.706;23.372;2023-04-04T02:30:16;146176.88;;;8.12;100.00
6938;BME280;40040;42.706;23.372;2023-04-04T02:32:45;146178.13;;;8.12;100.00
6938;BME280;40040;42.706;23.372;2023-04-04T02:35:13;146157.19;;;8.04;100.00
6938;BME280;40040;42.706;23.372;2023-04-04T02:37:43;146158.38;;;8.04;100.00
6938;BME280;40040;42.706;23.372;2023-04-04T02:40:11;146151.00;;;8.01;100.00
6938;BME280;40040;42.706;23.372;2023-04-04T02:42:41;146151.00;;;8.01;100.00
6938;BME280;40040;42.706;23.372;2023-04-04T02:45:09;146120.22;;;7.88;100.00
6938;BME280;40040;42.706;23.372;2023-04-04T02:47:36;146147.31;;;7.99;100.00
6938;BME280;40040;42.706;23.372;2023-04-04T02:50:05;146149.75;;;8.00;100.00
6938;BME280;40040;42.706;23.372;2023-04-04T02:52:32;146138.69;;;7.96;100.00
6938;BME280;40040;42.706;23.372;2023-04-04T02:54:59;146137.47;;;7.95;100.00
6938;BME280;40040;42.706;23.372;2023-04-04T02:57:26;146101.78;;;7.81;100.00
6938;BME280;40040;42.706;23.372;2023-04-04T02:59:53;146165.81;;;8.07;100.00
6938;BME280;40040;42.706;23.372;2023-04-04T03:02:19;146178.13;;;8.12;100.00
6938;BME280;40040;42.706;23.372;2023-04-04T03:04:46;146173.19;;;8.10;100.00
6938;BME280;40040;42.706;23.372;2023-04-04T03:07:14;146155.94;;;8.03;100.00
6938;BME280;40040;42.706;23.372;2023-04-04T03:09:41;146173.19;;;8.10;100.00
6938;BME280;40040;42.706;23.372;2023-04-04T03:12:10;146205.19;;;8.23;100.00
6938;BME280;40040;42.706;23.372;2023-04-04T03:14:36;146212.66;;;8.26;100.00
6938;BME280;40040;42.706;23.372;2023-04-04T03:17:03;146203.97;;;8.23;100.00
6938;BME280;40040;42.706;23.372;2023-04-04T03:19:30;146079.63;;;7.72;100.00
6938;BME280;40040;42.706;23.372;2023-04-04T03:21:57;146206.47;;;8.24;100.00
6938;BME280;40040;42.706;23.372;2023-04-04T03:24:25;146222.47;;;8.30;100.00
6938;BME280;40040;42.706;23.372;2023-04-04T03:26:52;146227.41;;;8.32;100.00
6938;BME280;40040;42.706;23.372;2023-04-04T03:29:19;146224.97;;;8.31;100.00
6938;BME280;40040;42.706;23.372;2023-04-04T03:31:46;146223.72;;;8.31;100.00
6938;BME280;40040;42.706;23.372;2023-04-04T03:34:13;146232.34;;;8.34;100.00
6938;BME280;40040;42.706;23.372;2023-04-04T03:36:40;146227.41;;;8.32;100.00
6938;BME280;40040;42.706;23.372;2023-04-04T03:39:06;146183.03;;;8.14;100.00
6938;BME280;40040;42.706;23.372;2023-04-04T03:41:35;146252.03;;;8.42;100.00
6938;BME280;40040;42.706;23.372;2023-04-04T03:44:03;146228.66;;;8.33;100.00
6938;BME280;40040;42.706;23.372;2023-04-04T03:46:30;146242.19;;;8.38;100.00
6938;BME280;40040;42.706;23.372;2023-04-04T03:48:56;146264.31;;;8.47;100.00
6938;BME280;40040;42.706;23.372;2023-04-04T03:51:23;146269.25;;;8.49;100.00
6938;BME280;40040;42.706;23.372;2023-04-04T03:53:50;146284.06;;;8.55;100.00
6938;BME280;40040;42.706;23.372;2023-04-04T03:56:17;146298.81;;;8.61;100.00
6938;BME280;40040;42.706;23.372;2023-04-04T03:58:45;146210.16;;;8.25;100.00
6938;BME280;40040;42.706;23.372;2023-04-04T04:01:12;146277.88;;;8.53;100.00
6938;BME280;40040;42.706;23.372;2023-04-04T04:03:39;146221.25;;;8.30;100.00
6938;BME280;40040;42.706;23.372;2023-04-04T04:06:06;146284.06;;;8.55;100.00
6938;BME280;40040;42.706;23.372;2023-04-04T04:08:33;146290.19;;;8.58;100.00
6938;BME280;40040;42.706;23.372;2023-04-04T04:11:03;146258.19;;;8.45;100.00
6938;BME280;40040;42.706;23.372;2023-04-04T04:13:30;146269.25;;;8.49;100.00
6938;BME280;40040;42.706;23.372;2023-04-04T04:15:58;146274.19;;;8.51;100.00
6938;BME280;40040;42.706;23.372;2023-04-04T04:18:25;146276.69;;;8.52;100.00
6938;BME280;40040;42.706;23.372;2023-04-04T04:20:55;146236.03;;;8.36;100.00
6938;BME280;40040;42.706;23.372;2023-04-04T04:23:22;146313.63;;;8.67;100.00
6938;BME280;40040;42.706;23.372;2023-04-04T04:25:49;146330.88;;;8.74;100.00
6938;BME280;40040;42.706;23.372;2023-04-04T04:28:16;146329.63;;;8.74;100.00
6938;BME280;40040;42.706;23.372;2023-04-04T04:30:42;146307.44;;;8.65;100.00
6938;BME280;40040;42.706;23.372;2023-04-04T04:33:12;146349.38;;;8.82;100.00
6938;BME280;40040;42.706;23.372;2023-04-04T04:35:38;146300.06;;;8.62;100.00
6938;BME280;40040;42.706;23.372;2023-04-04T04:38:06;146291.44;;;8.58;100.00
6938;BME280;40040;42.706;23.372;2023-04-04T04:40:33;146260.63;;;8.46;100.00
6938;BME280;40040;42.706;23.372;2023-04-04T04:42:59;146244.66;;;8.39;100.00
6938;BME280;40040;42.706;23.372;2023-04-04T04:45:26;146318.56;;;8.69;100.00
6938;BME280;40040;42.706;23.372;2023-04-04T04:47:53;146301.31;;;8.62;100.00
6938;BME280;40040;42.706;23.372;2023-04-04T04:50:21;146293.94;;;8.59;100.00
6938;BME280;40040;42.706;23.372;2023-04-04T04:52:49;146301.31;;;8.62;100.00
6938;BME280;40040;42.706;23.372;2023-04-04T04:55:16;146284.06;;;8.55;100.00
6938;BME280;40040;42.706;23.372;2023-04-04T04:57:46;146282.81;;;8.55;100.00
6938;BME280;40040;42.706;23.372;2023-04-04T05:00:13;146301.31;;;8.62;100.00
6938;BME280;40040;42.706;23.372;2023-04-04T05:02:41;146279.13;;;8.53;100.00
6938;BME280;40040;42.706;23.372;2023-04-04T05:05:08;146306.25;;;8.64;100.00
6938;BME280;40040;42.706;23.372;2023-04-04T05:07:36;146318.56;;;8.69;100.00
6938;BME280;40040;42.706;23.372;2023-04-04T05:10:04;146301.31;;;8.62;100.00
6938;BME280;40040;42.706;23.372;2023-04-04T05:12:30;146341.94;;;8.79;100.00
6938;BME280;40040;42.706;23.372;2023-04-04T05:14:57;146338.25;;;8.77;100.00
6938;BME280;40040;42.706;23.372;2023-04-04T05:17:24;146343.19;;;8.79;100.00
6938;BME280;40040;42.706;23.372;2023-04-04T05:19:51;146354.25;;;8.84;100.00
6938;BME280;40040;42.706;23.372;2023-04-04T05:22:17;146365.38;;;8.88;100.00
6938;BME280;40040;42.706;23.372;2023-04-04T05:24:46;146399.88;;;9.02;100.00
6938;BME280;40040;42.706;23.372;2023-04-04T05:27:13;146417.13;;;9.09;100.00
6938;BME280;40040;42.706;23.372;2023-04-04T05:29:40;146414.63;;;9.08;100.00
6938;BME280;40040;42.706;23.372;2023-04-04T05:32:06;146392.50;;;8.99;100.00
6938;BME280;40040;42.706;23.372;2023-04-04T05:34:33;146441.75;;;9.20;100.00
6938;BME280;40040;42.706;23.372;2023-04-04T05:37:00;146438.06;;;9.18;100.00
6938;BME280;40040;42.706;23.372;2023-04-04T05:39:27;146394.94;;;9.00;100.00
6938;BME280;40040;42.706;23.372;2023-04-04T05:41:55;146419.56;;;9.10;100.00
6938;BME280;40040;42.706;23.372;2023-04-04T05:44:22;146422.06;;;9.12;100.00
6938;BME280;40040;42.706;23.372;2023-04-04T05:46:49;146447.94;;;9.22;100.00
6938;BME280;40040;42.706;23.372;2023-04-04T05:49:16;146371.50;;;8.91;100.00
6938;BME280;40040;42.706;23.372;2023-04-04T05:51:43;146462.72;;;9.28;100.00
6938;BME280;40040;42.706;23.372;2023-04-04T05:54:09;146488.59;;;9.39;100.00
6938;BME280;40040;42.706;23.372;2023-04-04T05:56:36;146503.41;;;9.45;100.00
6938;BME280;40040;42.706;23.372;2023-04-04T05:59:04;146519.44;;;9.51;100.00
6938;BME280;40040;42.706;23.372;2023-04-04T06:01:31;146498.47;;;9.43;100.00
6938;BME280;40040;42.706;23.372;2023-04-04T06:03:58;146550.25;;;9.64;100.00
6938;BME280;40040;42.706;23.372;2023-04-04T06:06:25;146545.31;;;9.62;100.00
6938;BME280;40040;42.706;23.372;2023-04-04T06:08:52;146569.97;;;9.72;100.00
6938;BME280;40040;42.706;23.372;2023-04-04T06:11:20;146576.16;;;9.74;100.00
6938;BME280;40040;42.706;23.372;2023-04-04T06:13:47;146535.44;;;9.58;100.00
6938;BME280;40040;42.706;23.372;2023-04-04T06:16:16;146593.41;;;9.81;100.00
6938;BME280;40040;42.706;23.372;2023-04-04T06:18:43;146600.78;;;9.84;100.00
6938;BME280;40040;42.706;23.372;2023-04-04T06:21:10;146587.22;;;9.79;100.00
6938;BME280;40040;42.706;23.372;2023-04-04T06:23:37;146620.50;;;9.92;100.00
6938;BME280;40040;42.706;23.372;2023-04-04T06:26:04;146621.75;;;9.93;100.00
6938;BME280;40040;42.706;23.372;2023-04-04T06:28:31;146624.19;;;9.94;100.00
6938;BME280;40040;42.706;23.372;2023-04-04T06:30:58;146636.53;;;9.99;100.00
6938;BME280;40040;42.706;23.372;2023-04-04T06:33:27;146653.78;;;10.06;100.00
6938;BME280;40040;42.706;23.372;2023-04-04T06:35:53;146636.53;;;9.99;100.00
6938;BME280;40040;42.706;23.372;2023-04-04T06:38:20;146636.53;;;9.99;100.00
6938;BME280;40040;42.706;23.372;2023-04-04T06:40:47;146533.00;;;9.57;100.00
6938;BME280;40040;42.706;23.372;2023-04-04T06:43:14;146455.34;;;9.25;100.00
6938;BME280;40040;42.706;23.372;2023-04-04T06:45:40;146414.63;;;9.08;100.00
6938;BME280;40040;42.706;23.372;2023-04-04T06:48:07;146333.31;;;8.75;100.00
6938;BME280;40040;42.706;23.372;2023-04-04T06:50:36;146249.56;;;8.41;100.00
6938;BME280;40040;42.706;23.372;2023-04-04T06:53:02;146200.25;;;8.21;100.00
6938;BME280;40040;42.706;23.372;2023-04-04T06:55:31;146173.19;;;8.10;100.00
6938;BME280;40040;42.706;23.372;2023-04-04T06:57:58;146148.56;;;8.00;100.00
6938;BME280;40040;42.706;23.372;2023-04-04T07:00:25;146104.22;;;7.82;100.00
6938;BME280;40040;42.706;23.372;2023-04-04T07:02:56;146059.91;;;7.64;100.00
6938;BME280;40040;42.706;23.372;2023-04-04T07:05:23;146010.69;;;7.44;100.00
6938;BME280;40040;42.706;23.372;2023-04-04T07:07:52;145989.78;;;7.35;100.00
6938;BME280;40040;42.706;23.372;2023-04-04T07:10:19;145944.22;;;7.17;100.00
6938;BME280;40040;42.706;23.372;2023-04-04T07:12:46;145880.25;;;6.91;100.00
6938;BME280;40040;42.706;23.372;2023-04-04T07:15:13;145874.13;;;6.88;100.00
6938;BME280;40040;42.706;23.372;2023-04-04T07:17:40;145855.66;;;6.80;100.00
6938;BME280;40040;42.706;23.372;2023-04-04T07:20:07;145866.75;;;6.85;100.00
6938;BME280;40040;42.706;23.372;2023-04-04T07:22:36;145801.56;;;6.58;100.00
6938;BME280;40040;42.706;23.372;2023-04-04T07:25:05;145847.06;;;6.77;100.00
6938;BME280;40040;42.706;23.372;2023-04-04T07:27:32;145858.16;;;6.81;100.00
6938;BME280;40040;42.706;23.372;2023-04-04T07:29:59;145821.22;;;6.66;100.00
6938;BME280;40040;42.706;23.372;2023-04-04T07:32:26;145818.78;;;6.65;100.00
6938;BME280;40040;42.706;23.372;2023-04-04T07:34:53;145807.69;;;6.61;100.00
6938;BME280;40040;42.706;23.372;2023-04-04T07:37:20;145811.41;;;6.62;100.00
6938;BME280;40040;42.706;23.372;2023-04-04T07:39:47;145786.78;;;6.52;100.00
6938;BME280;40040;42.706;23.372;2023-04-04T07:42:16;145693.34;;;6.14;100.00
6938;BME280;40040;42.706;23.372;2023-04-04T07:44:47;145678.63;;;6.08;100.00
6938;BME280;40040;42.706;23.372;2023-04-04T07:47:14;145733.94;;;6.31;100.00
6938;BME280;40040;42.706;23.372;2023-04-04T07:49:41;145722.84;;;6.26;100.00
6938;BME280;40040;42.706;23.372;2023-04-04T07:52:08;145717.91;;;6.24;100.00
6938;BME280;40040;42.706;23.372;2023-04-04T07:54:34;145715.47;;;6.23;100.00
6938;BME280;40040;42.706;23.372;2023-04-04T07:57:01;145711.78;;;6.22;100.00
6938;BME280;40040;42.706;23.372;2023-04-04T07:59:31;145708.13;;;6.20;100.00
6938;BME280;40040;42.706;23.372;2023-04-04T08:01:58;145703.19;;;6.18;100.00
6938;BME280;40040;42.706;23.372;2023-04-04T08:04:25;145671.22;;;6.05;100.00
6938;BME280;40040;42.706;23.372;2023-04-04T08:06:52;145531.06;;;5.48;100.00
6938;BME280;40040;42.706;23.372;2023-04-04T08:09:18;145634.34;;;5.90;100.00
6938;BME280;40040;42.706;23.372;2023-04-04T08:11:45;145575.31;;;5.66;100.00
6938;BME280;40040;42.706;23.372;2023-04-04T08:14:12;145604.81;;;5.78;100.00
6938;BME280;40040;42.706;23.372;2023-04-04T08:16:40;145607.25;;;5.79;100.00
6938;BME280;40040;42.706;23.372;2023-04-04T08:19:07;145590.03;;;5.72;100.00
6938;BME280;40040;42.706;23.372;2023-04-04T08:21:34;145550.75;;;5.56;100.00
6938;BME280;40040;42.706;23.372;2023-04-04T08:24:01;145575.31;;;5.66;100.00
6938;BME280;40040;42.706;23.372;2023-04-04T08:26:28;145586.34;;;5.70;100.00
6938;BME280;40040;42.706;23.372;2023-04-04T08:28:56;145567.97;;;5.63;100.00
6938;BME280;40040;42.706;23.372;2023-04-04T08:31:23;145539.66;;;5.51;100.00
6938;BME280;40040;42.706;23.372;2023-04-04T08:33:51;145543.34;;;5.53;100.00
6938;BME280;40040;42.706;23.372;2023-04-04T08:36:18;145526.16;;;5.46;100.00
6938;BME280;40040;42.706;23.372;2023-04-04T08:38:45;145535.97;;;5.50;100.00
6938;BME280;40040;42.706;23.372;2023-04-04T08:41:12;145504.06;;;5.37;100.00
6938;BME280;40040;42.706;23.372;2023-04-04T08:43:42;145492.97;;;5.32;100.00
6938;BME280;40040;42.706;23.372;2023-04-04T08:46:11;145448.78;;;5.14;100.00
6938;BME280;40040;42.706;23.372;2023-04-04T08:48:40;145410.66;;;4.99;100.00
6938;BME280;40040;42.706;23.372;2023-04-04T08:51:11;145440.19;;;5.11;100.00
6938;BME280;40040;42.706;23.372;2023-04-04T08:53:39;145449.97;;;5.15;100.00
6938;BME280;40040;42.706;23.372;2023-04-04T08:56:06;145437.72;;;5.10;100.00
6938;BME280;40040;42.706;23.372;2023-04-04T08:58:33;145434.03;;;5.08;100.00
6938;BME280;40040;42.706;23.372;2023-04-04T09:01:02;145459.81;;;5.19;100.00
6938;BME280;40040;42.706;23.372;2023-04-04T09:03:32;145486.88;;;5.30;100.00
6938;BME280;40040;42.706;23.372;2023-04-04T09:06:00;145388.59;;;4.90;100.00
6938;BME280;40040;42.706;23.372;2023-04-04T09:08:29;145495.47;;;5.33;100.00
6938;BME280;40040;42.706;23.372;2023-04-04T09:10:57;145467.19;;;5.22;100.00
6938;BME280;40040;42.706;23.372;2023-04-04T09:13:27;145479.47;;;5.27;100.00
6938;BME280;40040;42.706;23.372;2023-04-04T09:15:55;145494.22;;;5.33;100.00
6938;BME280;40040;42.706;23.372;2023-04-04T09:18:22;145511.44;;;5.40;100.00
6938;BME280;40040;42.706;23.372;2023-04-04T09:20:49;145506.50;;;5.38;100.00
6938;BME280;40040;42.706;23.372;2023-04-04T09:23:17;145475.78;;;5.25;100.00
6938;BME280;40040;42.706;23.372;2023-04-04T09:25:47;145459.81;;;5.19;100.00
6938;BME280;40040;42.706;23.372;2023-04-04T09:28:15;145446.31;;;5.13;100.00
6938;BME280;40040;42.706;23.372;2023-04-04T09:30:42;145431.59;;;5.07;100.00
6938;BME280;40040;42.706;23.372;2023-04-04T09:33:12;145427.88;;;5.06;100.00
6938;BME280;40040;42.706;23.372;2023-04-04T09:35:43;145421.75;;;5.03;100.00
6938;BME280;40040;42.706;23.372;2023-04-04T09:38:10;145435.28;;;5.09;100.00
6938;BME280;40040;42.706;23.372;2023-04-04T09:40:40;145430.34;;;5.07;100.00
6938;BME280;40040;42.706;23.372;2023-04-04T09:43:10;145429.13;;;5.06;100.00
6938;BME280;40040;42.706;23.372;2023-04-04T09:45:39;145435.28;;;5.09;100.00
6938;BME280;40040;42.706;23.372;2023-04-04T09:48:08;145436.47;;;5.09;100.00
6938;BME280;40040;42.706;23.372;2023-04-04T09:50:36;145400.88;;;4.95;100.00
6938;BME280;40040;42.706;23.372;2023-04-04T09:53:03;145486.88;;;5.30;100.00
6938;BME280;40040;42.706;23.372;2023-04-04T09:55:31;145494.22;;;5.33;100.00
6938;BME280;40040;42.706;23.372;2023-04-04T09:58:11;145516.34;;;5.42;100.00
6938;BME280;40040;42.706;23.372;2023-04-04T10:00:40;145523.72;;;5.45;100.00
6938;BME280;40040;42.706;23.372;2023-04-04T10:03:10;145534.75;;;5.49;100.00
6938;BME280;40040;42.706;23.372;2023-04-04T10:05:39;145499.16;;;5.35;100.00
6938;BME280;40040;42.706;23.372;2023-04-04T10:08:16;145520.03;;;5.43;100.00
6938;BME280;40040;42.706;23.372;2023-04-04T10:10:47;145537.22;;;5.50;100.00
6938;BME280;40040;42.706;23.372;2023-04-04T10:13:21;145556.88;;;5.58;100.00
6938;BME280;40040;42.706;23.372;2023-04-04T10:15:48;145577.75;;;5.67;100.00
6938;BME280;40040;42.706;23.372;2023-04-04T10:18:15;145577.75;;;5.67;100.00
6938;BME280;40040;42.706;23.372;2023-04-04T10:20:42;145597.44;;;5.75;100.00
6938;BME280;40040;42.706;23.372;2023-04-04T10:23:09;145558.13;;;5.59;100.00
6938;BME280;40040;42.706;23.372;2023-04-04T10:25:36;145617.13;;;5.83;100.00
6938;BME280;40040;42.706;23.372;2023-04-04T10:28:03;145627.00;;;5.87;100.00
6938;BME280;40040;42.706;23.372;2023-04-04T10:30:36;145586.34;;;5.70;100.00
6938;BME280;40040;42.706;23.372;2023-04-04T10:33:06;145559.34;;;5.59;100.00
6938;BME280;40040;42.706;23.372;2023-04-04T10:35:37;145572.84;;;5.65;100.00
6938;BME280;40040;42.706;23.372;2023-04-04T10:38:06;145510.19;;;5.39;100.00
6938;BME280;40040;42.706;23.372;2023-04-04T10:40:35;145528.63;;;5.47;100.00
6938;BME280;40040;42.706;23.372;2023-04-04T10:43:05;145532.31;;;5.48;100.00
6938;BME280;40040;42.706;23.372;2023-04-04T10:45:35;145512.66;;;5.40;100.00
6938;BME280;40040;42.706;23.372;2023-04-04T10:48:03;145535.97;;;5.50;100.00
6938;BME280;40040;42.706;23.372;2023-04-04T10:50:30;145512.66;;;5.40;100.00
6938;BME280;40040;42.706;23.372;2023-04-04T10:52:59;145533.53;;;5.49;100.00
6938;BME280;40040;42.706;23.372;2023-04-04T10:55:28;145554.44;;;5.57;100.00
6938;BME280;40040;42.706;23.372;2023-04-04T10:57:56;145560.56;;;5.60;100.00
6938;BME280;40040;42.706;23.372;2023-04-04T11:00:23;145526.16;;;5.46;100.00
6938;BME280;40040;42.706;23.372;2023-04-04T11:02:54;145457.34;;;5.18;100.00
6938;BME280;40040;42.706;23.372;2023-04-04T11:05:24;145531.06;;;5.48;100.00
6938;BME280;40040;42.706;23.372;2023-04-04T11:07:55;145528.63;;;5.47;100.00
6938;BME280;40040;42.706;23.372;2023-04-04T11:10:24;145550.75;;;5.56;100.00
6938;BME280;40040;42.706;23.372;2023-04-04T11:12:53;145550.75;;;5.56;100.00
6938;BME280;40040;42.706;23.372;2023-04-04T11:15:22;145543.34;;;5.53;100.00
6938;BME280;40040;42.706;23.372;2023-04-04T11:17:55;145538.44;;;5.51;100.00
6938;BME280;40040;42.706;23.372;2023-04-04T11:20:27;145531.06;;;5.48;100.00
6938;BME280;40040;42.706;23.372;2023-04-04T11:23:02;145544.59;;;5.53;100.00
6938;BME280;40040;42.706;23.372;2023-04-04T11:25:39;145474.53;;;5.25;100.00
6938;BME280;40040;42.706;23.372;2023-04-04T11:28:14;145506.50;;;5.38;100.00
6938;BME280;40040;42.706;23.372;2023-04-04T11:30:42;145459.81;;;5.19;100.00
6938;BME280;40040;42.706;23.372;2023-04-04T11:33:24;145473.34;;;5.24;100.00
6938;BME280;40040;42.706;23.372;2023-04-04T11:35:52;145454.91;;;5.17;100.00
6938;BME280;40040;42.706;23.372;2023-04-04T11:38:19;145445.06;;;5.13;100.00
6938;BME280;40040;42.706;23.372;2023-04-04T11:40:52;145402.06;;;4.95;100.00
6938;BME280;40040;42.706;23.372;2023-04-04T11:43:20;145418.06;;;5.02;100.00
6938;BME280;40040;42.706;23.372;2023-04-04T11:45:48;145443.88;;;5.12;100.00
6938;BME280;40040;42.706;23.372;2023-04-04T11:48:18;145427.88;;;5.06;100.00
6938;BME280;40040;42.706;23.372;2023-04-04T11:50:46;145441.38;;;5.11;100.00
6938;BME280;40040;42.706;23.372;2023-04-04T11:53:15;145414.41;;;5.00;100.00
6938;BME280;40040;42.706;23.372;2023-04-04T11:55:43;145413.16;;;5.00;100.00
6938;BME280;40040;42.706;23.372;2023-04-04T11:58:16;145410.66;;;4.99;100.00
6938;BME280;40040;42.706;23.372;2023-04-04T12:00:44;145415.59;;;5.01;100.00
6938;BME280;40040;42.706;23.372;2023-04-04T12:03:16;145418.06;;;5.02;100.00
6938;BME280;40040;42.706;23.372;2023-04-04T12:05:43;145414.41;;;5.00;100.00
6938;BME280;40040;42.706;23.372;2023-04-04T12:08:11;145405.81;;;4.97;100.00
6938;BME280;40040;42.706;23.372;2023-04-04T12:10:39;145332.09;;;4.67;100.00
6938;BME280;40040;42.706;23.372;2023-04-04T12:13:06;145388.59;;;4.90;100.00
6938;BME280;40040;42.706;23.372;2023-04-04T12:15:34;145388.59;;;4.90;100.00
6938;BME280;40040;42.706;23.372;2023-04-04T12:18:02;145377.53;;;4.85;100.00
6938;BME280;40040;42.706;23.372;2023-04-04T12:20:33;145366.50;;;4.81;100.00
6938;BME280;40040;42.706;23.372;2023-04-04T12:23:02;145362.81;;;4.79;100.00
6938;BME280;40040;42.706;23.372;2023-04-04T12:25:29;145281.78;;;4.46;100.00
6938;BME280;40040;42.706;23.372;2023-04-04T12:27:58;145330.88;;;4.66;100.00
6938;BME280;40040;42.706;23.372;2023-04-04T12:30:28;145328.44;;;4.65;100.00
6938;BME280;40040;42.706;23.372;2023-04-04T12:32:55;145345.63;;;4.72;100.00
6938;BME280;40040;42.706;23.372;2023-04-04T12:35:22;145338.22;;;4.69;100.00
6938;BME280;40040;42.706;23.372;2023-04-04T12:38:01;145314.91;;;4.59;100.00
6938;BME280;40040;42.706;23.372;2023-04-04T12:40:30;145302.66;;;4.54;100.00
6938;BME280;40040;42.706;23.372;2023-04-04T12:42:58;145307.56;;;4.56;100.00
6938;BME280;40040;42.706;23.372;2023-04-04T12:45:25;145268.28;;;4.40;100.00
6938;BME280;40040;42.706;23.372;2023-04-04T12:47:53;145296.50;;;4.52;100.00
6938;BME280;40040;42.706;23.372;2023-04-04T12:50:21;145291.56;;;4.50;100.00
6938;BME280;40040;42.706;23.372;2023-04-04T12:52:50;145281.78;;;4.46;100.00
6938;BME280;40040;42.706;23.372;2023-04-04T12:55:21;145280.53;;;4.45;100.00